createdAt,value
2023-04-09T00:02:05.734Z,76.18
2023-04-09T00:05:15.254Z,76.93
2023-04-09T00:07:44.787Z,77.37
2023-04-09T00:16:11.562Z,78.14
2023-04-09T00:37:02.374Z,76.75
2023-04-09T00:39:34.823Z,75.99
2023-04-09T00:45:08.964Z,74.84
2023-04-09T00:47:49.744Z,75.49
2023-04-09T00:51:07.499Z,75.88
2023-04-09T00:53:50.860Z,76.54
2023-04-09T00:56:32.830Z,76.67
2023-04-09T00:59:09.315Z,78.06
2023-04-09T01:01:44.637Z,78.21
2023-04-09T01:04:23.988Z,79.50
2023-04-09T01:06:59.805Z,78.65
2023-04-09T01:09:57.292Z,78.98
2023-04-09T01:12:41.019Z,79.00
2023-04-09T01:15:22.805Z,77.98
2023-04-09T01:18:07.682Z,77.52
2023-04-09T01:20:47.183Z,77.01
2023-04-09T01:23:36.150Z,76.32
2023-04-09T01:29:37.448Z,77.02
2023-04-09T01:32:25.918Z,77.58
2023-04-09T01:35:10.810Z,76.73
2023-04-09T01:37:46.770Z,77.59
2023-04-09T01:40:36.569Z,77.62
2023-04-09T01:43:16.507Z,77.30
2023-04-09T01:45:49.672Z,77.75
2023-04-09T01:48:22.160Z,78.86
2023-04-09T01:51:15.766Z,79.06
2023-04-09T01:53:52.804Z,79.85
2023-04-09T01:56:23.181Z,80.01
2023-04-09T01:58:59.661Z,79.33
2023-04-09T02:01:48.314Z,80.55
2023-04-09T02:04:26.550Z,82.10
2023-04-09T02:07:14.670Z,82.75
2023-04-09T02:09:47.136Z,81.83
2023-04-09T02:12:20.420Z,80.98
2023-04-09T02:14:56.158Z,80.34
2023-04-09T02:17:27.051Z,80.77
2023-04-09T02:20:02.125Z,81.34
2023-04-09T02:22:32.953Z,82.09
2023-04-09T02:25:00.826Z,82.96
2023-04-09T02:27:30.940Z,84.17
2023-04-09T02:30:00.997Z,85.29
2023-04-09T02:32:43.018Z,86.09
2023-04-09T02:35:11.910Z,86.84
2023-04-09T02:37:42.796Z,87.68
2023-04-09T02:40:19.166Z,87.76
2023-04-09T02:42:50.081Z,87.03
2023-04-09T02:45:20.698Z,86.84
2023-04-09T02:47:59.563Z,86.46
2023-04-09T02:50:29.420Z,87.32
2023-04-09T02:52:58.873Z,87.50
2023-04-09T02:55:42.101Z,87.94
2023-04-09T02:58:17.450Z,88.31
2023-04-09T03:00:46.581Z,88.67
2023-04-09T03:03:16.036Z,88.58
2023-04-09T03:05:48.961Z,88.57
2023-04-09T03:08:17.682Z,88.55
2023-04-09T03:10:46.955Z,88.26
2023-04-09T03:13:15.771Z,88.43
2023-04-09T03:15:46.990Z,88.04
2023-04-09T03:18:20.022Z,88.08
2023-04-09T03:20:48.083Z,88.51
2023-04-09T03:23:20.701Z,88.32
2023-04-09T03:25:48.690Z,88.70
2023-04-09T03:28:17.181Z,88.95
2023-04-09T03:30:46.155Z,89.23
2023-04-09T03:33:28.743Z,88.79
2023-04-09T03:35:59.377Z,89.32
2023-04-09T03:38:29.889Z,88.96
2023-04-09T03:40:57.936Z,89.49
2023-04-09T03:43:25.926Z,89.26
2023-04-09T03:45:58.317Z,90.17
2023-04-09T03:48:33.041Z,89.93
2023-04-09T03:51:04.307Z,90.12
2023-04-09T03:53:36.127Z,90.45
2023-04-09T03:56:08.208Z,90.17
2023-04-09T03:58:42.719Z,90.10
2023-04-09T04:01:12.877Z,90.16
2023-04-09T04:03:42.574Z,90.02
2023-04-09T04:06:13.036Z,90.41
2023-04-09T04:08:46.254Z,90.67
2023-04-09T04:11:20.090Z,91.10
2023-04-09T04:13:52.255Z,90.82
2023-04-09T04:16:20.519Z,90.51
2023-04-09T04:18:51.351Z,88.62
2023-04-09T04:21:22.198Z,88.71
2023-04-09T04:23:50.044Z,89.30
2023-04-09T04:26:18.343Z,89.34
2023-04-09T04:28:48.160Z,90.24
2023-04-09T04:31:16.833Z,90.60
2023-04-09T04:33:48.041Z,90.96
2023-04-09T04:36:18.455Z,91.34
2023-04-09T04:38:47.146Z,91.40
2023-04-09T04:41:19.135Z,91.32
2023-04-09T04:43:59.038Z,91.49
2023-04-09T04:46:27.221Z,91.58
2023-04-09T04:48:55.566Z,91.70
2023-04-09T04:51:28.626Z,91.12
2023-04-09T04:54:08.792Z,91.09
2023-04-09T04:56:46.384Z,91.54
2023-04-09T04:59:16.454Z,91.84
2023-04-09T05:01:45.672Z,91.23
2023-04-09T05:04:16.314Z,91.80
2023-04-09T05:06:58.599Z,91.95
2023-04-09T05:09:26.887Z,92.38
2023-04-09T05:11:55.751Z,92.52
2023-04-09T05:14:31.217Z,91.87
2023-04-09T05:17:00.015Z,91.53
2023-04-09T05:19:28.919Z,91.14
2023-04-09T05:22:08.362Z,91.20
2023-04-09T05:24:39.994Z,90.68
2023-04-09T05:27:10.213Z,89.93
2023-04-09T05:29:38.059Z,87.67
2023-04-09T05:37:46.691Z,84.22
2023-04-09T05:40:35.873Z,83.82
2023-04-09T05:43:04.773Z,83.10
2023-04-09T05:45:38.193Z,82.85
2023-04-09T05:48:07.603Z,82.53
2023-04-09T05:50:54.593Z,82.91
2023-04-09T05:53:29.117Z,84.14
2023-04-09T05:56:02.579Z,83.63
2023-04-09T05:58:30.860Z,83.38
2023-04-09T06:01:00.075Z,83.46
2023-04-09T06:03:30.295Z,83.04
2023-04-09T06:06:06.143Z,82.61
2023-04-09T06:08:46.650Z,82.87
2023-04-09T06:11:14.824Z,82.30
2023-04-09T06:13:46.566Z,82.46
2023-04-09T06:16:15.266Z,82.39
2023-04-09T06:18:46.942Z,81.72
2023-04-09T06:21:14.759Z,80.93
2023-04-09T06:23:50.241Z,81.07
2023-04-09T06:26:23.553Z,81.25
2023-04-09T06:28:53.021Z,80.04
2023-04-09T06:31:29.581Z,78.28
2023-04-09T06:34:16.399Z,78.13
2023-04-09T06:36:45.277Z,76.76
2023-04-09T06:39:15.380Z,75.25
2023-04-09T06:41:49.320Z,76.39
2023-04-09T06:44:18.803Z,76.10
2023-04-09T06:46:49.588Z,76.79
2023-04-09T06:49:27.493Z,77.98
2023-04-09T06:51:56.354Z,78.17
2023-04-09T06:54:25.339Z,76.34
2023-04-09T06:56:53.076Z,77.40
2023-04-09T06:59:20.808Z,75.04
2023-04-09T07:01:48.896Z,75.40
2023-04-09T07:04:19.550Z,75.25
2023-04-09T07:06:47.918Z,74.30
2023-04-09T07:09:18.595Z,71.32
2023-04-09T07:11:52.412Z,69.70
2023-04-09T07:14:22.228Z,69.20
2023-04-09T07:16:50.133Z,68.22
2023-04-09T07:19:20.686Z,68.52
2023-04-09T07:21:49.408Z,68.66
2023-04-09T07:24:18.078Z,71.07
2023-04-09T07:26:47.021Z,69.75
2023-04-09T07:29:17.211Z,66.93
2023-04-09T07:31:46.473Z,65.71
2023-04-09T07:34:28.858Z,65.36
2023-04-09T07:36:58.605Z,68.55
2023-04-09T07:39:30.364Z,68.12
2023-04-09T07:42:01.752Z,69.15
2023-04-09T07:48:04.909Z,66.87
2023-04-09T07:50:43.756Z,67.62
2023-04-09T07:53:14.562Z,68.03
2023-04-09T07:56:01.464Z,67.79
2023-04-09T07:58:29.756Z,66.53
2023-04-09T08:01:05.601Z,67.87
2023-04-09T08:03:38.129Z,65.86
2023-04-09T08:06:06.850Z,64.36
2023-04-09T08:08:38.270Z,64.26
2023-04-09T08:11:06.989Z,64.10
2023-04-09T08:13:34.808Z,66.44
2023-04-09T08:16:06.810Z,64.64
2023-04-09T08:18:42.056Z,62.79
2023-04-09T08:21:10.535Z,62.70
2023-04-09T08:24:04.825Z,61.15
2023-04-09T08:26:34.071Z,62.09
2023-04-09T08:29:03.395Z,61.70
2023-04-09T08:34:23.452Z,60.25
2023-04-09T08:36:53.385Z,62.31
2023-04-09T08:39:21.861Z,63.75
2023-04-09T08:41:49.815Z,61.26
2023-04-09T08:44:21.588Z,62.46
2023-04-09T08:46:59.640Z,60.91
2023-04-09T08:49:32.501Z,59.35
2023-04-09T08:52:01.047Z,57.31
2023-04-09T08:54:42.478Z,56.96
2023-04-09T08:57:24.367Z,54.28
2023-04-09T09:06:01.942Z,55.00
2023-04-09T09:08:55.127Z,55.24
2023-04-09T09:11:49.264Z,54.41
2023-04-09T09:17:10.675Z,53.19
2023-04-09T09:22:34.767Z,52.47
2023-04-09T09:25:45.514Z,51.88
2023-04-09T09:28:40.827Z,51.28
2023-04-09T09:31:15.296Z,53.37
2023-04-09T09:33:59.516Z,53.62
2023-04-09T09:36:40.644Z,52.41
2023-04-09T09:39:12.096Z,53.26
2023-04-09T09:41:41.041Z,52.73
2023-04-09T09:44:15.109Z,54.47
2023-04-09T09:46:43.349Z,53.17
2023-04-09T09:49:12.100Z,52.41
2023-04-09T09:51:46.373Z,51.38
2023-04-09T09:54:23.180Z,51.78
2023-04-09T09:57:02.288Z,51.41
2023-04-09T09:59:50.072Z,54.28
2023-04-09T10:05:20.608Z,55.98
2023-04-09T10:07:53.331Z,53.87
2023-04-09T10:10:24.697Z,54.29
2023-04-09T10:12:55.066Z,52.75
2023-04-09T10:15:23.200Z,52.83
2023-04-09T10:17:51.819Z,51.68
2023-04-09T10:20:27.912Z,50.08
2023-04-09T10:29:18.660Z,47.86
2023-04-09T10:37:57.970Z,49.93
2023-04-09T10:40:55.695Z,49.63
2023-04-09T10:52:35.686Z,53.90
2023-04-09T10:55:05.811Z,53.22
2023-04-09T10:57:38.298Z,51.97
2023-04-09T11:03:17.462Z,50.41
2023-04-09T11:06:15.252Z,49.57
2023-04-09T11:11:34.290Z,48.02
2023-04-09T11:14:05.071Z,46.64
2023-04-09T11:16:35.709Z,47.42
2023-04-09T11:19:10.389Z,46.42
2023-04-09T11:21:38.981Z,45.29
2023-04-09T11:24:16.338Z,45.04
2023-04-09T11:26:57.830Z,45.10
2023-04-09T11:29:42.863Z,48.26
2023-04-09T11:35:04.033Z,46.28
2023-04-09T11:43:22.106Z,46.57
2023-04-09T11:45:57.842Z,46.39
2023-04-09T11:54:23.809Z,47.98
2023-04-09T11:57:20.546Z,47.64
2023-04-09T11:59:58.452Z,47.05
2023-04-09T12:02:36.539Z,47.30
2023-04-09T12:05:06.918Z,46.83
2023-04-09T12:07:46.346Z,45.32
2023-04-09T12:10:31.182Z,45.52
2023-04-09T12:13:06.746Z,43.61
2023-04-09T12:15:47.823Z,44.42
2023-04-09T12:18:57.654Z,44.35
2023-04-09T12:21:39.118Z,45.84
2023-04-09T12:24:39.924Z,46.66
2023-04-09T12:27:27.409Z,45.90
2023-04-09T12:30:08.191Z,45.79
2023-04-09T12:32:37.015Z,45.28
2023-04-09T12:35:10.235Z,45.83
2023-04-09T12:37:40.935Z,45.20
2023-04-09T12:40:18.854Z,45.79
2023-04-09T12:43:06.336Z,45.66
2023-04-09T12:46:01.928Z,45.64
2023-04-09T12:52:17.881Z,43.95
2023-04-09T13:00:58.592Z,42.62
2023-04-09T13:06:23.343Z,38.01
2023-04-09T13:09:24.132Z,37.64
2023-04-09T13:15:15.447Z,40.10
2023-04-09T13:18:12.454Z,41.46
2023-04-09T13:23:30.763Z,40.35
2023-04-09T13:26:13.975Z,40.32
2023-04-09T13:28:49.528Z,39.89
2023-04-09T13:31:22.201Z,38.75
2023-04-09T13:36:49.684Z,37.51
2023-04-09T13:42:48.636Z,36.18
2023-04-09T13:51:43.677Z,38.77
2023-04-09T13:55:20.445Z,39.56
2023-04-09T14:01:35.076Z,40.27
2023-04-09T14:05:06.086Z,40.90
2023-04-09T14:08:05.854Z,41.12
2023-04-09T14:14:03.684Z,41.51
2023-04-09T14:19:40.065Z,41.65
2023-04-09T14:25:33.821Z,41.53
2023-04-09T14:28:19.340Z,39.98
2023-04-09T14:34:04.510Z,40.00
2023-04-09T14:36:41.290Z,39.90
2023-04-09T14:42:28.263Z,39.62
2023-04-09T14:45:09.470Z,39.26
2023-04-09T14:47:48.818Z,38.29
2023-04-09T14:50:41.408Z,38.25
2023-04-09T14:56:41.803Z,37.51
2023-04-09T14:59:52.621Z,36.66
2023-04-09T15:02:24.937Z,36.65
2023-04-09T15:05:13.797Z,36.17
2023-04-09T15:07:44.229Z,36.97
2023-04-09T15:10:18.211Z,39.21
2023-04-09T15:13:32.325Z,38.29
2023-04-09T15:16:06.414Z,39.33
2023-04-09T15:18:48.066Z,39.82
2023-04-09T15:21:41.148Z,40.07
2023-04-09T15:24:22.477Z,40.47
2023-04-09T15:26:52.881Z,41.04
2023-04-09T15:29:25.241Z,41.04
2023-04-09T15:31:54.721Z,41.52
2023-04-09T15:37:17.702Z,41.34
2023-04-09T15:39:59.184Z,41.53
2023-04-09T15:42:27.602Z,41.28
2023-04-09T15:45:14.476Z,40.93
2023-04-09T15:47:45.490Z,41.17
2023-04-09T15:50:18.173Z,41.76
2023-04-09T15:53:01.127Z,40.80
2023-04-09T15:55:31.119Z,40.57
2023-04-09T15:58:07.000Z,40.42
2023-04-09T16:00:36.708Z,39.87
2023-04-09T16:03:17.145Z,39.78
2023-04-09T16:06:09.164Z,39.59
2023-04-09T16:09:14.245Z,39.36
2023-04-09T16:11:45.103Z,39.89
2023-04-09T16:14:29.430Z,39.51
2023-04-09T16:17:05.110Z,39.45
2023-04-09T16:19:34.215Z,37.95
2023-04-09T16:32:04.366Z,37.66
2023-04-09T16:34:50.974Z,37.87
2023-04-09T16:37:43.534Z,39.00
2023-04-09T16:40:48.901Z,40.08
2023-04-09T16:52:35.477Z,40.65
2023-04-09T16:58:16.414Z,41.23
2023-04-09T17:01:34.492Z,41.59
2023-04-09T17:07:33.031Z,42.18
2023-04-09T17:10:20.443Z,42.18
2023-04-09T17:12:48.660Z,41.59
2023-04-09T17:15:18.119Z,41.63
2023-04-09T17:23:33.155Z,42.54
2023-04-09T17:26:02.249Z,42.16
2023-04-09T17:28:31.643Z,43.16
2023-04-09T17:31:19.199Z,42.78
2023-04-09T17:34:06.993Z,43.40
2023-04-09T17:36:37.055Z,43.73
2023-04-09T17:39:52.525Z,43.96
2023-04-09T17:42:26.222Z,44.43
2023-04-09T17:57:58.310Z,43.11
2023-04-09T18:00:46.737Z,44.23
2023-04-09T18:03:24.721Z,44.98
2023-04-09T18:06:10.174Z,45.36
2023-04-09T18:09:03.439Z,45.60
2023-04-09T18:11:35.613Z,46.07
2023-04-09T18:16:55.816Z,46.25
2023-04-09T18:19:49.004Z,46.78
2023-04-09T18:22:22.010Z,46.86
2023-04-09T18:28:14.084Z,45.33
2023-04-09T18:31:18.688Z,45.88
2023-04-09T18:33:57.684Z,46.37
2023-04-09T18:37:05.540Z,45.09
2023-04-09T18:42:36.002Z,45.17
2023-04-09T18:55:54.597Z,46.74
2023-04-09T18:58:49.215Z,47.55
2023-04-09T19:04:39.011Z,48.06
2023-04-09T19:10:47.172Z,48.59
2023-04-09T19:16:42.770Z,48.83
2023-04-09T19:22:49.615Z,49.60
2023-04-09T19:26:00.506Z,49.50
2023-04-09T19:28:54.437Z,49.94
2023-04-09T19:34:32.301Z,50.68
2023-04-09T19:37:13.739Z,50.81
2023-04-09T19:39:42.010Z,51.02
2023-04-09T19:42:11.061Z,51.63
2023-04-09T19:44:38.800Z,51.26
2023-04-09T19:47:10.245Z,50.88
2023-04-09T19:49:45.928Z,51.02
2023-04-09T19:52:38.886Z,51.55
2023-04-09T19:55:26.014Z,51.66
2023-04-09T19:58:11.072Z,51.97
2023-04-09T20:00:41.201Z,52.26
2023-04-09T20:03:23.623Z,52.46
2023-04-09T20:06:04.125Z,52.60
2023-04-09T20:08:31.773Z,53.08
2023-04-09T20:11:02.511Z,53.69
2023-04-09T20:13:36.824Z,54.67
2023-04-09T20:16:28.161Z,54.81
2023-04-09T20:18:57.908Z,55.24
2023-04-09T20:24:34.203Z,56.07
2023-04-09T20:35:43.848Z,56.63
2023-04-09T20:38:20.256Z,57.63
2023-04-09T20:40:48.137Z,56.27
2023-04-09T20:43:31.686Z,57.03
2023-04-09T20:46:02.689Z,57.36
2023-04-09T20:48:46.151Z,57.86
2023-04-09T20:51:17.908Z,58.27
2023-04-09T20:53:51.965Z,58.74
2023-04-09T20:56:21.457Z,58.48
2023-04-09T20:58:50.559Z,59.03
2023-04-09T21:01:43.586Z,58.46
2023-04-09T21:04:16.321Z,57.86
2023-04-09T21:06:46.168Z,57.65
2023-04-09T21:09:21.920Z,57.81
2023-04-09T21:11:49.767Z,58.15
2023-04-09T21:14:23.376Z,57.93
2023-04-09T21:16:52.631Z,57.90
2023-04-09T21:19:26.500Z,58.06
2023-04-09T21:21:55.686Z,58.00
2023-04-09T21:27:08.726Z,59.72
2023-04-09T21:29:36.481Z,60.46
2023-04-09T21:32:28.066Z,60.54
2023-04-09T21:34:57.987Z,61.40
2023-04-09T21:37:29.697Z,61.53
2023-04-09T21:40:12.764Z,61.52
2023-04-09T21:42:42.284Z,61.92
2023-04-09T21:45:13.116Z,62.66
2023-04-09T21:47:42.051Z,64.00
2023-04-09T21:50:13.412Z,62.72
2023-04-09T21:52:42.414Z,63.48
2023-04-09T21:55:14.292Z,64.30
2023-04-09T21:57:44.611Z,64.27
2023-04-09T22:00:19.093Z,62.95
2023-04-09T22:02:49.536Z,63.42
2023-04-09T22:08:02.839Z,63.93
2023-04-09T22:10:44.961Z,64.05
2023-04-09T22:13:18.874Z,63.53
2023-04-09T22:15:47.014Z,63.62
2023-04-09T22:18:14.753Z,62.72
2023-04-09T22:20:43.872Z,63.04
2023-04-09T22:23:12.561Z,63.27
2023-04-09T22:25:41.703Z,64.18
2023-04-09T22:28:10.058Z,64.82
2023-04-09T22:33:39.085Z,64.41
2023-04-09T22:36:14.849Z,64.18
2023-04-09T22:38:43.879Z,63.90
2023-04-09T22:41:41.297Z,63.86
2023-04-09T22:44:11.523Z,65.74
2023-04-09T22:46:41.837Z,65.67
2023-04-09T22:49:16.379Z,66.87
2023-04-09T22:51:48.349Z,67.03
2023-04-09T22:54:31.927Z,67.57
2023-04-09T22:57:11.065Z,67.98
2023-04-09T22:59:43.293Z,68.19
2023-04-09T23:02:17.173Z,68.42
2023-04-09T23:04:56.206Z,69.17
2023-04-09T23:10:09.381Z,69.70
2023-04-09T23:12:40.710Z,69.90
2023-04-09T23:15:18.164Z,70.36
2023-04-09T23:18:01.922Z,70.35
2023-04-09T23:20:33.300Z,70.07
2023-04-09T23:23:01.239Z,70.39
2023-04-09T23:25:31.460Z,70.51
2023-04-09T23:28:00.530Z,71.33
2023-04-09T23:30:36.001Z,71.98
2023-04-09T23:33:13.826Z,71.79
2023-04-09T23:35:43.916Z,71.98
2023-04-09T23:38:15.625Z,72.30
2023-04-09T23:40:44.114Z,72.50
2023-04-09T23:43:31.242Z,73.42
2023-04-09T23:46:08.960Z,74.34
2023-04-09T23:48:37.095Z,73.72
2023-04-09T23:51:14.057Z,73.78
2023-04-09T23:53:43.850Z,73.92
2023-04-09T23:56:12.676Z,74.46
2023-04-09T23:58:42.972Z,75.42
